Tropical Cyclones
[Index]
Main Index Home Page Stock Weather Photos Extreme Storms Discussion Storm News and Storm Chasing Reports Tropical Cyclones / Hurricanes / Typhoons Weather Data and Links Wild Fires / Bushfires Weather Observation Techniques Weather Picture Catalogue Tornado Pictures and Reports Stock Video Footage and DVDs for sale
Season 1955-1956 Tropical Cyclone 195609 Track Map
Season 1955-1956 Summaries: [BoM-AU] [JTWC-AU] [JTWC-SIO] [JTWC-SPAC] [JTWC-SH]
<<- Previous TC | JTWC 1955-1956 Season | Next TC ->>

click for intensity scale information  Lat/long Grid: Show Hide

 Date Labels: Show Hide

Joint Typhoon Warning Centre Cyclone Data

Name: 195609
Number: 251 / 5609

15 Jan 1956 00:00 UTC to 24 Jan 1956 18:00 UTC

    date/time    lat    long     hPa   cat  kts
1956-01-15 00   12.2   128.0                              
1956-01-15 06   12.7   126.6                              
1956-01-15 12   13.3   125.3                              
1956-01-15 18   14.1   124.0                              
1956-01-16 00   14.8   122.8                              
1956-01-16 06   15.1   121.9                              
1956-01-16 12   15.4   120.9                              
1956-01-16 18   15.7   119.9                              
1956-01-17 00   16.1   118.8                              
1956-01-17 06   16.5   117.7                              
1956-01-17 12   16.9   116.5                              
1956-01-17 18   17.3   115.1                              
1956-01-18 00   17.7   113.8                              
1956-01-18 06   17.8   113.2                              
1956-01-18 12   17.9   112.6                              
1956-01-18 18   18.1   111.8                              
1956-01-19 00   18.3   110.8                              
1956-01-19 06   18.5   109.7                              
1956-01-19 12   18.6   108.5                              
1956-01-19 18   18.8   107.0                              
1956-01-20 00   19.0   105.7                              
1956-01-20 06   19.2   104.6                              
1956-01-20 12   19.3   103.4                              
1956-01-20 18   19.6   102.1                              
1956-01-21 00   19.9   100.9                              
1956-01-21 06   20.3    99.9                              
1956-01-21 12   21.1    99.1                              
1956-01-21 18   22.1    98.5                              
1956-01-22 00   23.2    98.1                              
1956-01-22 06   24.1    97.9                              
1956-01-22 12   25.1    97.7                              
1956-01-22 18   26.1    97.6                              
1956-01-23 00   27.2    97.7                              
1956-01-23 06   28.3    98.0                              
1956-01-23 12   29.4    98.2                              
1956-01-23 18   30.3    98.6                              
1956-01-24 00   31.2    99.1                              
1956-01-24 06   32.2   100.6                              
1956-01-24 12   33.3   102.0                              
1956-01-24 18   34.2   102.7                              
Winds are 1-min average.

Tropical cyclone tracks developed by Michael Bath using data from the Joint Typhoon Warning Centre Best Tracks and Google Maps.


[Australian Severe Weather index] [Copyright Notice] [Email Contacts] [Search This Site] [Privacy Policy]
Document: tropical_cyclone_195609.htm Updated: 18 September 2016